Terminal Aerodrome Forecast
Issued by NWS

Home | Current Version | Previous Version | Text Only | Print | Product List | Glossary On
Versions: 1 2 3 4 5 6 7 8 9 10 11 12 13 14 15 16
000
FTUS42 KTAE 011700
TAFDHN
TAF
KDHN 011723Z 0118/0218 10004KT P6SM BKN045
     FM012100 12003KT P6SM SCT040
     FM020900 11003KT 4SM BR SCT100
     FM021300 14004KT P6SM SCT100=

USA.gov is the U.S. government's official web portal to all federal, state and local government web resources and services.